sensor_id;sensor_type;location;lat;lon;timestamp;temperature;humidity
792;DHT22;379;49.022;12.148;2024-03-02T00:00:38;5.70;99.90
792;DHT22;379;49.022;12.148;2024-03-02T00:03:07;5.70;99.90
792;DHT22;379;49.022;12.148;2024-03-02T00:05:36;5.70;99.90
792;DHT22;379;49.022;12.148;2024-03-02T00:08:05;5.70;99.90
792;DHT22;379;49.022;12.148;2024-03-02T00:10:36;5.70;99.90
792;DHT22;379;49.022;12.148;2024-03-02T00:13:05;5.70;99.90
792;DHT22;379;49.022;12.148;2024-03-02T00:15:43;5.70;99.90
792;DHT22;379;49.022;12.148;2024-03-02T00:18:13;5.60;99.90
792;DHT22;379;49.022;12.148;2024-03-02T00:20:42;5.60;99.90
792;DHT22;379;49.022;12.148;2024-03-02T00:23:09;5.60;99.90
792;DHT22;379;49.022;12.148;2024-03-02T00:25:39;5.60;99.90
792;DHT22;379;49.022;12.148;2024-03-02T00:28:16;5.60;99.90
792;DHT22;379;49.022;12.148;2024-03-02T00:30:55;5.60;99.90
792;DHT22;379;49.022;12.148;2024-03-02T00:33:22;5.70;99.90
792;DHT22;379;49.022;12.148;2024-03-02T00:35:51;5.70;99.90
792;DHT22;379;49.022;12.148;2024-03-02T00:38:18;5.70;99.90
792;DHT22;379;49.022;12.148;2024-03-02T00:40:45;5.70;99.90
792;DHT22;379;49.022;12.148;2024-03-02T00:46:06;5.70;99.90
792;DHT22;379;49.022;12.148;2024-03-02T00:48:33;5.70;99.90
792;DHT22;379;49.022;12.148;2024-03-02T00:51:03;5.70;99.90
792;DHT22;379;49.022;12.148;2024-03-02T00:53:31;5.70;99.90
792;DHT22;379;49.022;12.148;2024-03-02T00:55:59;5.70;99.90
792;DHT22;379;49.022;12.148;2024-03-02T00:58:26;5.70;99.90
792;DHT22;379;49.022;12.148;2024-03-02T01:00:52;5.70;99.90
792;DHT22;379;49.022;12.148;2024-03-02T01:03:19;5.70;99.90
792;DHT22;379;49.022;12.148;2024-03-02T01:05:46;5.70;99.90
792;DHT22;379;49.022;12.148;2024-03-02T01:08:14;5.70;99.90
792;DHT22;379;49.022;12.148;2024-03-02T01:10:41;5.70;99.90
792;DHT22;379;49.022;12.148;2024-03-02T01:13:08;5.70;99.90
792;DHT22;379;49.022;12.148;2024-03-02T01:15:35;5.70;99.90
792;DHT22;379;49.022;12.148;2024-03-02T01:18:02;5.70;99.90
792;DHT22;379;49.022;12.148;2024-03-02T01:20:29;5.70;99.90
792;DHT22;379;49.022;12.148;2024-03-02T01:22:56;5.70;99.90
792;DHT22;379;49.022;12.148;2024-03-02T01:25:24;5.70;99.90
792;DHT22;379;49.022;12.148;2024-03-02T01:27:50;5.70;99.90
792;DHT22;379;49.022;12.148;2024-03-02T01:30:17;5.70;99.90
792;DHT22;379;49.022;12.148;2024-03-02T01:32:44;5.70;99.90
792;DHT22;379;49.022;12.148;2024-03-02T01:35:11;5.70;99.90
792;DHT22;379;49.022;12.148;2024-03-02T01:37:37;5.70;99.90
792;DHT22;379;49.022;12.148;2024-03-02T01:40:05;5.60;99.90
792;DHT22;379;49.022;12.148;2024-03-02T01:42:36;5.70;99.90
792;DHT22;379;49.022;12.148;2024-03-02T01:45:04;5.70;99.90
792;DHT22;379;49.022;12.148;2024-03-02T01:47:31;5.70;99.90
792;DHT22;379;49.022;12.148;2024-03-02T01:49:59;5.70;99.90
792;DHT22;379;49.022;12.148;2024-03-02T01:52:26;5.70;99.90
792;DHT22;379;49.022;12.148;2024-03-02T01:54:53;5.70;99.90
792;DHT22;379;49.022;12.148;2024-03-02T01:57:20;5.70;99.90
792;DHT22;379;49.022;12.148;2024-03-02T01:59:48;5.70;99.90
792;DHT22;379;49.022;12.148;2024-03-02T02:02:16;5.70;99.90
792;DHT22;379;49.022;12.148;2024-03-02T02:04:43;5.70;99.90
792;DHT22;379;49.022;12.148;2024-03-02T02:07:10;5.70;99.90
792;DHT22;379;49.022;12.148;2024-03-02T02:09:36;5.70;99.90
792;DHT22;379;49.022;12.148;2024-03-02T02:12:04;5.70;99.90
792;DHT22;379;49.022;12.148;2024-03-02T02:14:32;5.70;99.90
792;DHT22;379;49.022;12.148;2024-03-02T02:17:00;5.70;99.90
792;DHT22;379;49.022;12.148;2024-03-02T02:19:27;5.70;99.90
792;DHT22;379;49.022;12.148;2024-03-02T02:21:55;5.70;99.90
792;DHT22;379;49.022;12.148;2024-03-02T02:24:22;5.70;99.90
792;DHT22;379;49.022;12.148;2024-03-02T02:26:48;5.70;99.90
792;DHT22;379;49.022;12.148;2024-03-02T02:29:15;5.70;99.90
792;DHT22;379;49.022;12.148;2024-03-02T02:31:42;5.70;99.90
792;DHT22;379;49.022;12.148;2024-03-02T02:34:09;5.70;99.90
792;DHT22;379;49.022;12.148;2024-03-02T02:36:37;5.70;99.90
792;DHT22;379;49.022;12.148;2024-03-02T02:39:08;5.70;99.90
792;DHT22;379;49.022;12.148;2024-03-02T02:41:36;5.70;99.90
792;DHT22;379;49.022;12.148;2024-03-02T02:44:03;5.70;99.90
792;DHT22;379;49.022;12.148;2024-03-02T02:46:29;5.70;99.90
792;DHT22;379;49.022;12.148;2024-03-02T02:48:56;5.70;99.90
792;DHT22;379;49.022;12.148;2024-03-02T02:51:23;5.70;99.90
792;DHT22;379;49.022;12.148;2024-03-02T02:53:50;5.70;99.90
792;DHT22;379;49.022;12.148;2024-03-02T02:56:18;5.70;99.90
792;DHT22;379;49.022;12.148;2024-03-02T02:58:45;5.70;99.90
792;DHT22;379;49.022;12.148;2024-03-02T03:01:12;5.70;99.90
792;DHT22;379;49.022;12.148;2024-03-02T03:03:38;5.70;99.90
792;DHT22;379;49.022;12.148;2024-03-02T03:06:06;5.70;99.90
792;DHT22;379;49.022;12.148;2024-03-02T03:08:32;5.70;99.90
792;DHT22;379;49.022;12.148;2024-03-02T03:10:59;5.70;99.90
792;DHT22;379;49.022;12.148;2024-03-02T03:13:27;5.70;99.90
792;DHT22;379;49.022;12.148;2024-03-02T03:15:54;5.70;99.90
792;DHT22;379;49.022;12.148;2024-03-02T03:18:21;5.70;99.90
792;DHT22;379;49.022;12.148;2024-03-02T03:20:47;5.70;99.90
792;DHT22;379;49.022;12.148;2024-03-02T03:23:15;5.70;99.90
792;DHT22;379;49.022;12.148;2024-03-02T03:25:42;5.70;99.90
792;DHT22;379;49.022;12.148;2024-03-02T03:28:09;5.80;99.90
792;DHT22;379;49.022;12.148;2024-03-02T03:30:38;5.80;99.90
792;DHT22;379;49.022;12.148;2024-03-02T03:33:05;5.80;99.90
792;DHT22;379;49.022;12.148;2024-03-02T03:35:32;5.80;99.90
792;DHT22;379;49.022;12.148;2024-03-02T03:37:59;5.80;99.90
792;DHT22;379;49.022;12.148;2024-03-02T03:40:26;5.80;99.90
792;DHT22;379;49.022;12.148;2024-03-02T03:42:52;5.80;99.90
792;DHT22;379;49.022;12.148;2024-03-02T03:45:21;5.80;99.90
792;DHT22;379;49.022;12.148;2024-03-02T03:47:49;5.90;99.90
792;DHT22;379;49.022;12.148;2024-03-02T03:50:16;5.70;99.90
792;DHT22;379;49.022;12.148;2024-03-02T03:52:43;5.80;99.90
792;DHT22;379;49.022;12.148;2024-03-02T03:55:09;5.80;99.90
792;DHT22;379;49.022;12.148;2024-03-02T03:57:36;5.70;99.90
792;DHT22;379;49.022;12.148;2024-03-02T04:00:03;5.70;99.90
792;DHT22;379;49.022;12.148;2024-03-02T04:02:30;5.70;99.90
792;DHT22;379;49.022;12.148;2024-03-02T04:04:58;5.70;99.90
792;DHT22;379;49.022;12.148;2024-03-02T04:07:25;5.70;99.90
792;DHT22;379;49.022;12.148;2024-03-02T04:09:52;5.70;99.90
792;DHT22;379;49.022;12.148;2024-03-02T04:12:18;5.80;99.90
792;DHT22;379;49.022;12.148;2024-03-02T04:14:45;5.70;99.90
792;DHT22;379;49.022;12.148;2024-03-02T04:17:12;5.80;99.90
792;DHT22;379;49.022;12.148;2024-03-02T04:19:39;5.80;99.90
792;DHT22;379;49.022;12.148;2024-03-02T04:22:07;5.80;99.90
792;DHT22;379;49.022;12.148;2024-03-02T04:24:33;5.80;99.90
792;DHT22;379;49.022;12.148;2024-03-02T04:27:00;5.70;99.90
792;DHT22;379;49.022;12.148;2024-03-02T04:29:27;5.80;99.90
792;DHT22;379;49.022;12.148;2024-03-02T04:31:54;5.80;99.90
792;DHT22;379;49.022;12.148;2024-03-02T04:34:21;5.80;99.90
792;DHT22;379;49.022;12.148;2024-03-02T04:36:48;5.80;99.90
792;DHT22;379;49.022;12.148;2024-03-02T04:39:16;5.80;99.90
792;DHT22;379;49.022;12.148;2024-03-02T04:41:43;5.80;99.90
792;DHT22;379;49.022;12.148;2024-03-02T04:44:10;5.80;99.90
792;DHT22;379;49.022;12.148;2024-03-02T04:46:36;5.80;99.90
792;DHT22;379;49.022;12.148;2024-03-02T04:49:03;5.80;99.90
792;DHT22;379;49.022;12.148;2024-03-02T04:51:30;5.80;99.90
792;DHT22;379;49.022;12.148;2024-03-02T04:53:57;5.80;99.90
792;DHT22;379;49.022;12.148;2024-03-02T04:56:25;5.80;99.90
792;DHT22;379;49.022;12.148;2024-03-02T04:59:09;5.80;99.90
792;DHT22;379;49.022;12.148;2024-03-02T05:01:36;5.80;99.90
792;DHT22;379;49.022;12.148;2024-03-02T05:04:03;5.80;99.90
792;DHT22;379;49.022;12.148;2024-03-02T05:06:30;5.80;99.90
792;DHT22;379;49.022;12.148;2024-03-02T05:08:56;5.80;99.90
792;DHT22;379;49.022;12.148;2024-03-02T05:11:25;5.80;99.90
792;DHT22;379;49.022;12.148;2024-03-02T05:14:09;5.90;99.90
792;DHT22;379;49.022;12.148;2024-03-02T05:16:36;5.90;99.90
792;DHT22;379;49.022;12.148;2024-03-02T05:19:04;5.90;99.90
792;DHT22;379;49.022;12.148;2024-03-02T05:21:32;5.90;99.90
792;DHT22;379;49.022;12.148;2024-03-02T05:23:59;5.90;99.90
792;DHT22;379;49.022;12.148;2024-03-02T05:26:27;5.90;99.90
792;DHT22;379;49.022;12.148;2024-03-02T05:28:54;5.90;99.90
792;DHT22;379;49.022;12.148;2024-03-02T05:31:21;5.90;99.90
792;DHT22;379;49.022;12.148;2024-03-02T05:33:47;5.90;99.90
792;DHT22;379;49.022;12.148;2024-03-02T05:36:14;6.00;99.90
792;DHT22;379;49.022;12.148;2024-03-02T05:38:41;6.00;99.90
792;DHT22;379;49.022;12.148;2024-03-02T05:41:08;6.00;99.90
792;DHT22;379;49.022;12.148;2024-03-02T05:43:36;6.00;99.90
792;DHT22;379;49.022;12.148;2024-03-02T05:46:03;6.00;99.90
792;DHT22;379;49.022;12.148;2024-03-02T05:48:29;6.00;99.90
792;DHT22;379;49.022;12.148;2024-03-02T05:50:56;6.00;99.90
792;DHT22;379;49.022;12.148;2024-03-02T05:53:23;6.00;99.90
792;DHT22;379;49.022;12.148;2024-03-02T05:55:50;6.00;99.90
792;DHT22;379;49.022;12.148;2024-03-02T05:58:19;6.00;99.90
792;DHT22;379;49.022;12.148;2024-03-02T06:01:00;6.00;99.90
792;DHT22;379;49.022;12.148;2024-03-02T06:03:27;6.00;99.90
792;DHT22;379;49.022;12.148;2024-03-02T06:05:54;6.00;99.90
792;DHT22;379;49.022;12.148;2024-03-02T06:08:21;6.10;99.90
792;DHT22;379;49.022;12.148;2024-03-02T06:10:48;6.10;99.90
792;DHT22;379;49.022;12.148;2024-03-02T06:13:15;6.10;99.90
792;DHT22;379;49.022;12.148;2024-03-02T06:15:41;6.10;99.90
792;DHT22;379;49.022;12.148;2024-03-02T06:18:10;6.10;99.90
792;DHT22;379;49.022;12.148;2024-03-02T06:20:37;6.10;99.90
792;DHT22;379;49.022;12.148;2024-03-02T06:23:04;6.10;99.90
792;DHT22;379;49.022;12.148;2024-03-02T06:25:31;6.10;99.90
792;DHT22;379;49.022;12.148;2024-03-02T06:27:57;6.10;99.90
792;DHT22;379;49.022;12.148;2024-03-02T06:30:24;6.10;99.90
792;DHT22;379;49.022;12.148;2024-03-02T06:32:51;6.10;99.90
792;DHT22;379;49.022;12.148;2024-03-02T06:35:19;6.20;99.90
792;DHT22;379;49.022;12.148;2024-03-02T06:37:46;6.20;99.90
792;DHT22;379;49.022;12.148;2024-03-02T06:40:12;6.20;99.90
792;DHT22;379;49.022;12.148;2024-03-02T06:42:39;6.20;99.90
792;DHT22;379;49.022;12.148;2024-03-02T06:45:06;6.30;99.90
792;DHT22;379;49.022;12.148;2024-03-02T06:47:33;6.30;99.90
792;DHT22;379;49.022;12.148;2024-03-02T06:50:00;6.30;99.90
792;DHT22;379;49.022;12.148;2024-03-02T06:52:28;6.40;99.90
792;DHT22;379;49.022;12.148;2024-03-02T06:54:55;6.40;99.90
792;DHT22;379;49.022;12.148;2024-03-02T06:57:21;6.40;99.90
792;DHT22;379;49.022;12.148;2024-03-02T06:59:49;6.40;99.90
792;DHT22;379;49.022;12.148;2024-03-02T07:02:19;6.50;99.90
792;DHT22;379;49.022;12.148;2024-03-02T07:04:46;6.50;99.90
792;DHT22;379;49.022;12.148;2024-03-02T07:07:13;6.60;99.90
792;DHT22;379;49.022;12.148;2024-03-02T07:09:41;6.60;99.90
792;DHT22;379;49.022;12.148;2024-03-02T07:12:07;6.60;99.90
792;DHT22;379;49.022;12.148;2024-03-02T07:14:35;6.60;99.90
792;DHT22;379;49.022;12.148;2024-03-02T07:17:19;6.60;99.90
792;DHT22;379;49.022;12.148;2024-03-02T07:19:46;6.60;99.90
792;DHT22;379;49.022;12.148;2024-03-02T07:22:13;6.70;99.90
792;DHT22;379;49.022;12.148;2024-03-02T07:24:41;6.70;99.90
792;DHT22;379;49.022;12.148;2024-03-02T07:27:09;6.80;99.90
792;DHT22;379;49.022;12.148;2024-03-02T07:29:36;6.80;99.90
792;DHT22;379;49.022;12.148;2024-03-02T07:32:03;6.80;99.90
792;DHT22;379;49.022;12.148;2024-03-02T07:34:30;6.80;99.90
792;DHT22;379;49.022;12.148;2024-03-02T07:36:57;6.80;99.90
792;DHT22;379;49.022;12.148;2024-03-02T07:39:24;6.80;99.90
792;DHT22;379;49.022;12.148;2024-03-02T07:41:52;6.90;99.90
792;DHT22;379;49.022;12.148;2024-03-02T07:44:19;6.90;99.90
792;DHT22;379;49.022;12.148;2024-03-02T07:46:47;6.90;99.90
792;DHT22;379;49.022;12.148;2024-03-02T07:49:15;7.00;99.90
792;DHT22;379;49.022;12.148;2024-03-02T07:51:42;7.00;99.90
792;DHT22;379;49.022;12.148;2024-03-02T07:54:09;7.10;99.90
792;DHT22;379;49.022;12.148;2024-03-02T07:56:36;7.00;99.90
792;DHT22;379;49.022;12.148;2024-03-02T07:59:05;7.00;99.90
792;DHT22;379;49.022;12.148;2024-03-02T08:01:33;7.00;99.90
792;DHT22;379;49.022;12.148;2024-03-02T08:04:00;7.00;99.90
792;DHT22;379;49.022;12.148;2024-03-02T08:06:29;7.10;99.90
792;DHT22;379;49.022;12.148;2024-03-02T08:08:57;7.10;99.90
792;DHT22;379;49.022;12.148;2024-03-02T08:11:25;7.20;99.90
792;DHT22;379;49.022;12.148;2024-03-02T08:13:52;7.30;99.90
792;DHT22;379;49.022;12.148;2024-03-02T08:16:22;7.40;99.90
792;DHT22;379;49.022;12.148;2024-03-02T08:18:51;7.50;99.90
792;DHT22;379;49.022;12.148;2024-03-02T08:21:18;7.60;99.90
792;DHT22;379;49.022;12.148;2024-03-02T08:23:45;7.80;99.90
792;DHT22;379;49.022;12.148;2024-03-02T08:26:12;8.00;99.90
792;DHT22;379;49.022;12.148;2024-03-02T08:28:39;8.20;99.90
792;DHT22;379;49.022;12.148;2024-03-02T08:31:06;8.30;99.90
792;DHT22;379;49.022;12.148;2024-03-02T08:33:34;8.40;99.90
792;DHT22;379;49.022;12.148;2024-03-02T08:36:01;8.30;99.90
792;DHT22;379;49.022;12.148;2024-03-02T08:38:28;8.30;99.90
792;DHT22;379;49.022;12.148;2024-03-02T08:40:55;8.30;99.90
792;DHT22;379;49.022;12.148;2024-03-02T08:43:22;8.20;99.90
792;DHT22;379;49.022;12.148;2024-03-02T08:45:49;8.20;99.90
792;DHT22;379;49.022;12.148;2024-03-02T08:48:16;8.20;99.90
792;DHT22;379;49.022;12.148;2024-03-02T08:50:44;8.20;99.90
792;DHT22;379;49.022;12.148;2024-03-02T08:53:11;8.20;99.90
792;DHT22;379;49.022;12.148;2024-03-02T08:55:38;8.30;99.90
792;DHT22;379;49.022;12.148;2024-03-02T08:58:05;8.40;99.90
792;DHT22;379;49.022;12.148;2024-03-02T09:00:32;8.50;99.90
792;DHT22;379;49.022;12.148;2024-03-02T09:02:59;8.70;99.90
792;DHT22;379;49.022;12.148;2024-03-02T09:05:25;8.80;99.90
792;DHT22;379;49.022;12.148;2024-03-02T09:07:54;8.80;99.90
792;DHT22;379;49.022;12.148;2024-03-02T09:10:20;8.90;99.90
792;DHT22;379;49.022;12.148;2024-03-02T09:12:47;9.00;99.90
792;DHT22;379;49.022;12.148;2024-03-02T09:15:16;9.00;99.90
792;DHT22;379;49.022;12.148;2024-03-02T09:17:42;9.10;99.90
792;DHT22;379;49.022;12.148;2024-03-02T09:20:10;9.20;99.90
792;DHT22;379;49.022;12.148;2024-03-02T09:22:39;9.20;99.90
792;DHT22;379;49.022;12.148;2024-03-02T09:25:08;9.20;99.90
792;DHT22;379;49.022;12.148;2024-03-02T09:27:36;9.20;99.90
792;DHT22;379;49.022;12.148;2024-03-02T09:30:04;9.20;99.90
792;DHT22;379;49.022;12.148;2024-03-02T09:32:31;9.30;99.90
792;DHT22;379;49.022;12.148;2024-03-02T09:34:58;9.30;99.90
792;DHT22;379;49.022;12.148;2024-03-02T09:37:24;9.40;99.90
792;DHT22;379;49.022;12.148;2024-03-02T09:39:52;9.50;99.90
792;DHT22;379;49.022;12.148;2024-03-02T09:42:21;9.50;99.90
792;DHT22;379;49.022;12.148;2024-03-02T09:44:48;9.60;99.90
792;DHT22;379;49.022;12.148;2024-03-02T09:47:15;9.60;99.90
792;DHT22;379;49.022;12.148;2024-03-02T09:49:41;9.50;99.90
792;DHT22;379;49.022;12.148;2024-03-02T09:52:10;9.50;99.90
792;DHT22;379;49.022;12.148;2024-03-02T09:54:37;9.60;99.90
792;DHT22;379;49.022;12.148;2024-03-02T09:57:04;9.80;99.90
792;DHT22;379;49.022;12.148;2024-03-02T09:59:32;9.90;99.90
792;DHT22;379;49.022;12.148;2024-03-02T10:02:01;10.10;99.90
792;DHT22;379;49.022;12.148;2024-03-02T10:04:29;10.30;99.90
792;DHT22;379;49.022;12.148;2024-03-02T10:07:12;10.50;99.90
792;DHT22;379;49.022;12.148;2024-03-02T10:09:39;10.80;99.90
792;DHT22;379;49.022;12.148;2024-03-02T10:12:07;10.90;99.90
792;DHT22;379;49.022;12.148;2024-03-02T10:14:36;10.80;99.90
792;DHT22;379;49.022;12.148;2024-03-02T10:17:04;10.60;99.90
792;DHT22;379;49.022;12.148;2024-03-02T10:19:31;10.60;99.90
792;DHT22;379;49.022;12.148;2024-03-02T10:22:00;10.70;99.90
792;DHT22;379;49.022;12.148;2024-03-02T10:24:34;10.90;99.90
792;DHT22;379;49.022;12.148;2024-03-02T10:27:02;11.20;99.90
792;DHT22;379;49.022;12.148;2024-03-02T10:29:29;11.40;99.90
792;DHT22;379;49.022;12.148;2024-03-02T10:31:58;11.60;99.90
792;DHT22;379;49.022;12.148;2024-03-02T10:34:28;11.80;99.90
792;DHT22;379;49.022;12.148;2024-03-02T10:36:55;11.90;99.90
792;DHT22;379;49.022;12.148;2024-03-02T10:39:24;12.00;99.90
792;DHT22;379;49.022;12.148;2024-03-02T10:41:52;12.10;99.90
792;DHT22;379;49.022;12.148;2024-03-02T10:44:20;12.10;99.90
792;DHT22;379;49.022;12.148;2024-03-02T10:46:49;12.10;99.90
792;DHT22;379;49.022;12.148;2024-03-02T10:49:18;12.00;99.90
792;DHT22;379;49.022;12.148;2024-03-02T10:51:45;12.00;99.90
792;DHT22;379;49.022;12.148;2024-03-02T10:54:12;12.00;99.90
792;DHT22;379;49.022;12.148;2024-03-02T10:56:40;12.00;99.90
792;DHT22;379;49.022;12.148;2024-03-02T10:59:16;12.00;99.90
792;DHT22;379;49.022;12.148;2024-03-02T11:01:45;12.10;99.90
792;DHT22;379;49.022;12.148;2024-03-02T11:04:13;12.00;99.90
792;DHT22;379;49.022;12.148;2024-03-02T11:06:48;12.00;99.90
792;DHT22;379;49.022;12.148;2024-03-02T11:09:17;11.90;99.90
792;DHT22;379;49.022;12.148;2024-03-02T11:11:46;11.80;99.90
792;DHT22;379;49.022;12.148;2024-03-02T11:14:23;11.70;99.90
792;DHT22;379;49.022;12.148;2024-03-02T11:16:51;11.80;99.90
792;DHT22;379;49.022;12.148;2024-03-02T11:19:19;11.80;99.90
792;DHT22;379;49.022;12.148;2024-03-02T11:21:48;11.80;99.90
792;DHT22;379;49.022;12.148;2024-03-02T11:24:29;11.80;99.90
792;DHT22;379;49.022;12.148;2024-03-02T11:26:58;11.90;99.90
792;DHT22;379;49.022;12.148;2024-03-02T11:32:17;12.20;99.90
792;DHT22;379;49.022;12.148;2024-03-02T11:34:46;12.30;99.90
792;DHT22;379;49.022;12.148;2024-03-02T11:37:15;12.50;99.90
792;DHT22;379;49.022;12.148;2024-03-02T11:39:43;12.60;99.90
792;DHT22;379;49.022;12.148;2024-03-02T11:42:11;12.50;99.90
792;DHT22;379;49.022;12.148;2024-03-02T11:44:40;12.50;99.90
792;DHT22;379;49.022;12.148;2024-03-02T11:47:10;12.50;99.90
792;DHT22;379;49.022;12.148;2024-03-02T11:49:38;12.60;99.90
792;DHT22;379;49.022;12.148;2024-03-02T11:52:06;12.60;99.90
792;DHT22;379;49.022;12.148;2024-03-02T11:54:35;12.70;99.90
792;DHT22;379;49.022;12.148;2024-03-02T11:57:05;12.80;99.90
792;DHT22;379;49.022;12.148;2024-03-02T11:59:32;12.80;99.90
792;DHT22;379;49.022;12.148;2024-03-02T12:01:59;12.70;99.90
792;DHT22;379;49.022;12.148;2024-03-02T12:04:26;12.70;99.90
792;DHT22;379;49.022;12.148;2024-03-02T12:06:54;12.70;99.90
792;DHT22;379;49.022;12.148;2024-03-02T12:09:22;12.80;99.90
792;DHT22;379;49.022;12.148;2024-03-02T12:12:01;13.00;99.90
792;DHT22;379;49.022;12.148;2024-03-02T12:14:28;13.10;99.90
792;DHT22;379;49.022;12.148;2024-03-02T12:16:55;13.10;99.90
792;DHT22;379;49.022;12.148;2024-03-02T12:19:24;13.20;99.90
792;DHT22;379;49.022;12.148;2024-03-02T12:21:51;13.30;99.90
792;DHT22;379;49.022;12.148;2024-03-02T12:24:18;13.40;99.90
792;DHT22;379;49.022;12.148;2024-03-02T12:26:45;13.40;99.90
792;DHT22;379;49.022;12.148;2024-03-02T12:29:14;13.30;99.90
792;DHT22;379;49.022;12.148;2024-03-02T12:31:42;13.40;99.90
792;DHT22;379;49.022;12.148;2024-03-02T12:34:12;13.60;99.90
792;DHT22;379;49.022;12.148;2024-03-02T12:36:39;13.70;99.90
792;DHT22;379;49.022;12.148;2024-03-02T12:39:07;13.90;99.90
792;DHT22;379;49.022;12.148;2024-03-02T12:41:36;14.00;99.90
792;DHT22;379;49.022;12.148;2024-03-02T12:44:03;14.10;99.90
792;DHT22;379;49.022;12.148;2024-03-02T12:46:32;14.30;99.90
792;DHT22;379;49.022;12.148;2024-03-02T12:49:07;14.20;99.90
792;DHT22;379;49.022;12.148;2024-03-02T12:51:34;13.80;99.90
792;DHT22;379;49.022;12.148;2024-03-02T12:54:01;13.50;99.90
792;DHT22;379;49.022;12.148;2024-03-02T12:56:29;13.20;99.90
792;DHT22;379;49.022;12.148;2024-03-02T12:58:56;13.00;99.90
792;DHT22;379;49.022;12.148;2024-03-02T13:01:24;12.70;99.90
792;DHT22;379;49.022;12.148;2024-03-02T13:03:53;12.40;99.90
792;DHT22;379;49.022;12.148;2024-03-02T13:06:20;12.20;99.90
792;DHT22;379;49.022;12.148;2024-03-02T13:08:48;12.10;99.90
792;DHT22;379;49.022;12.148;2024-03-02T13:11:16;12.00;99.90
792;DHT22;379;49.022;12.148;2024-03-02T13:13:43;11.70;99.90
792;DHT22;379;49.022;12.148;2024-03-02T13:16:10;11.40;99.90
792;DHT22;379;49.022;12.148;2024-03-02T13:18:38;11.20;99.90
792;DHT22;379;49.022;12.148;2024-03-02T13:21:07;11.00;99.90
792;DHT22;379;49.022;12.148;2024-03-02T13:23:34;10.90;99.90
792;DHT22;379;49.022;12.148;2024-03-02T13:26:01;10.60;99.90
792;DHT22;379;49.022;12.148;2024-03-02T13:28:28;10.50;99.90
792;DHT22;379;49.022;12.148;2024-03-02T13:30:55;10.30;99.90
792;DHT22;379;49.022;12.148;2024-03-02T13:33:22;10.10;99.90
792;DHT22;379;49.022;12.148;2024-03-02T13:35:49;10.00;99.90
792;DHT22;379;49.022;12.148;2024-03-02T13:38:18;10.00;99.90
792;DHT22;379;49.022;12.148;2024-03-02T13:40:45;9.90;99.90
792;DHT22;379;49.022;12.148;2024-03-02T13:43:12;9.80;99.90
792;DHT22;379;49.022;12.148;2024-03-02T13:45:39;9.80;99.90
792;DHT22;379;49.022;12.148;2024-03-02T13:48:07;9.80;99.90
792;DHT22;379;49.022;12.148;2024-03-02T13:50:33;9.80;99.90
792;DHT22;379;49.022;12.148;2024-03-02T13:53:00;9.90;99.90
792;DHT22;379;49.022;12.148;2024-03-02T13:55:29;9.90;99.90
792;DHT22;379;49.022;12.148;2024-03-02T13:57:57;9.90;99.90
792;DHT22;379;49.022;12.148;2024-03-02T14:00:23;10.00;99.90
792;DHT22;379;49.022;12.148;2024-03-02T14:02:50;10.10;99.90
792;DHT22;379;49.022;12.148;2024-03-02T14:05:17;10.10;99.90
792;DHT22;379;49.022;12.148;2024-03-02T14:07:45;10.10;99.90
792;DHT22;379;49.022;12.148;2024-03-02T14:10:11;10.20;99.90
792;DHT22;379;49.022;12.148;2024-03-02T14:12:41;10.20;99.90
792;DHT22;379;49.022;12.148;2024-03-02T14:15:08;10.30;99.90
792;DHT22;379;49.022;12.148;2024-03-02T14:17:35;10.30;99.90
792;DHT22;379;49.022;12.148;2024-03-02T14:20:02;10.20;99.90
792;DHT22;379;49.022;12.148;2024-03-02T14:22:30;10.20;99.90
792;DHT22;379;49.022;12.148;2024-03-02T14:24:57;10.20;99.90
792;DHT22;379;49.022;12.148;2024-03-02T14:27:24;10.20;99.90
792;DHT22;379;49.022;12.148;2024-03-02T14:29:52;10.20;99.90
792;DHT22;379;49.022;12.148;2024-03-02T14:32:19;10.20;99.90
792;DHT22;379;49.022;12.148;2024-03-02T14:34:45;10.10;99.90
792;DHT22;379;49.022;12.148;2024-03-02T14:37:13;10.10;99.90
792;DHT22;379;49.022;12.148;2024-03-02T14:39:40;10.20;99.90
792;DHT22;379;49.022;12.148;2024-03-02T14:42:06;10.00;99.90
792;DHT22;379;49.022;12.148;2024-03-02T14:44:33;10.00;99.90
792;DHT22;379;49.022;12.148;2024-03-02T14:47:02;10.00;99.90
792;DHT22;379;49.022;12.148;2024-03-02T14:49:29;10.00;99.90
792;DHT22;379;49.022;12.148;2024-03-02T14:51:56;9.90;99.90
792;DHT22;379;49.022;12.148;2024-03-02T14:54:23;9.90;99.90
792;DHT22;379;49.022;12.148;2024-03-02T14:56:50;10.00;99.90
792;DHT22;379;49.022;12.148;2024-03-02T14:59:17;9.90;99.90
792;DHT22;379;49.022;12.148;2024-03-02T15:01:44;9.90;99.90
792;DHT22;379;49.022;12.148;2024-03-02T15:04:13;10.00;99.90
792;DHT22;379;49.022;12.148;2024-03-02T15:06:41;10.00;99.90
792;DHT22;379;49.022;12.148;2024-03-02T15:09:08;10.00;99.90
792;DHT22;379;49.022;12.148;2024-03-02T15:11:35;10.00;99.90
792;DHT22;379;49.022;12.148;2024-03-02T15:14:02;10.00;99.90
792;DHT22;379;49.022;12.148;2024-03-02T15:16:28;10.10;99.90
792;DHT22;379;49.022;12.148;2024-03-02T15:18:55;10.10;99.90
792;DHT22;379;49.022;12.148;2024-03-02T15:21:23;10.10;99.90
792;DHT22;379;49.022;12.148;2024-03-02T15:23:50;10.10;99.90
792;DHT22;379;49.022;12.148;2024-03-02T15:26:17;10.10;99.90
792;DHT22;379;49.022;12.148;2024-03-02T15:28:44;10.10;99.90
792;DHT22;379;49.022;12.148;2024-03-02T15:31:10;10.10;99.90
792;DHT22;379;49.022;12.148;2024-03-02T15:33:37;10.10;99.90
792;DHT22;379;49.022;12.148;2024-03-02T15:36:05;10.00;99.90
792;DHT22;379;49.022;12.148;2024-03-02T15:38:33;10.00;99.90
792;DHT22;379;49.022;12.148;2024-03-02T15:41:03;9.90;99.90
792;DHT22;379;49.022;12.148;2024-03-02T15:43:29;9.90;99.90
792;DHT22;379;49.022;12.148;2024-03-02T15:45:57;9.90;99.90
792;DHT22;379;49.022;12.148;2024-03-02T15:48:24;9.80;99.90
792;DHT22;379;49.022;12.148;2024-03-02T15:50:50;9.70;99.90
792;DHT22;379;49.022;12.148;2024-03-02T15:53:18;9.70;99.90
792;DHT22;379;49.022;12.148;2024-03-02T15:55:46;9.80;99.90
792;DHT22;379;49.022;12.148;2024-03-02T15:58:13;9.70;99.90
792;DHT22;379;49.022;12.148;2024-03-02T16:00:39;9.70;99.90
792;DHT22;379;49.022;12.148;2024-03-02T16:03:06;9.70;99.90
792;DHT22;379;49.022;12.148;2024-03-02T16:05:33;9.60;99.90
792;DHT22;379;49.022;12.148;2024-03-02T16:08:00;9.50;99.90
792;DHT22;379;49.022;12.148;2024-03-02T16:10:26;9.50;99.90
792;DHT22;379;49.022;12.148;2024-03-02T16:12:54;9.40;99.90
792;DHT22;379;49.022;12.148;2024-03-02T16:15:26;9.30;99.90
792;DHT22;379;49.022;12.148;2024-03-02T16:17:53;9.20;99.90
792;DHT22;379;49.022;12.148;2024-03-02T16:20:20;9.10;99.90
792;DHT22;379;49.022;12.148;2024-03-02T16:22:47;9.00;99.90
792;DHT22;379;49.022;12.148;2024-03-02T16:25:13;8.90;99.90
792;DHT22;379;49.022;12.148;2024-03-02T16:27:40;8.70;99.90
792;DHT22;379;49.022;12.148;2024-03-02T16:30:09;8.60;99.90
792;DHT22;379;49.022;12.148;2024-03-02T16:32:36;8.50;99.90
792;DHT22;379;49.022;12.148;2024-03-02T16:35:03;8.40;99.90
792;DHT22;379;49.022;12.148;2024-03-02T16:37:30;8.20;99.90